createdAt,value
2022-12-18T00:00:24.840Z,-6.15
2022-12-18T00:01:24.882Z,-6.16
2022-12-18T00:02:24.868Z,-6.16
2022-12-18T00:03:25.020Z,-6.16
2022-12-18T00:04:24.947Z,-6.15
2022-12-18T00:05:24.886Z,-6.18
2022-12-18T00:06:24.903Z,-6.17
2022-12-18T00:07:24.906Z,-6.16
2022-12-18T00:08:24.929Z,-6.18
2022-12-18T00:09:24.948Z,-6.20
2022-12-18T00:10:24.950Z,-6.20
2022-12-18T00:11:24.966Z,-6.20
2022-12-18T00:12:24.984Z,-6.22
2022-12-18T00:13:24.999Z,-6.24
2022-12-18T00:14:25.008Z,-6.24
2022-12-18T00:15:25.024Z,-6.24
2022-12-18T00:16:25.058Z,-6.20
2022-12-18T00:17:25.048Z,-6.21
2022-12-18T00:18:25.062Z,-6.23
2022-12-18T00:19:25.075Z,-6.24
2022-12-18T00:20:25.091Z,-6.23
2022-12-18T00:21:25.106Z,-6.27
2022-12-18T00:22:25.125Z,-6.29
2022-12-18T00:23:25.136Z,-6.28
2022-12-18T00:24:25.149Z,-6.33
2022-12-18T00:25:25.154Z,-6.33
2022-12-18T00:26:25.162Z,-6.34
2022-12-18T00:27:25.173Z,-6.34
2022-12-18T00:28:25.177Z,-6.35
2022-12-18T00:29:25.192Z,-6.36
2022-12-18T00:30:25.198Z,-6.35
2022-12-18T00:31:25.321Z,-6.34
2022-12-18T00:32:25.212Z,-6.37
2022-12-18T00:33:25.212Z,-6.38
2022-12-18T00:34:25.229Z,-6.39
2022-12-18T00:35:25.237Z,-6.40
2022-12-18T00:36:25.252Z,-6.44
2022-12-18T00:37:25.258Z,-6.43
2022-12-18T00:38:25.271Z,-6.47
2022-12-18T00:39:25.286Z,-6.48
2022-12-18T00:40:25.299Z,-6.47
2022-12-18T00:41:25.316Z,-6.47
2022-12-18T00:42:25.320Z,-6.44
2022-12-18T00:43:25.326Z,-6.43
2022-12-18T00:44:25.335Z,-6.39
2022-12-18T00:45:25.384Z,-6.41
2022-12-18T00:46:25.357Z,-6.40
2022-12-18T00:47:25.362Z,-6.41
2022-12-18T00:48:25.378Z,-6.41
2022-12-18T00:49:25.386Z,-6.44
2022-12-18T00:50:25.393Z,-6.46
2022-12-18T00:51:25.406Z,-6.49
2022-12-18T00:52:25.424Z,-6.51
2022-12-18T00:53:25.425Z,-6.52
2022-12-18T00:54:25.443Z,-6.50
2022-12-18T00:55:25.456Z,-6.49
2022-12-18T00:56:25.469Z,-6.45
2022-12-18T00:57:25.477Z,-6.49
2022-12-18T00:58:25.491Z,-6.46
2022-12-18T00:59:25.502Z,-6.45
2022-12-18T01:00:25.516Z,-6.45
2022-12-18T01:01:25.648Z,-6.46
2022-12-18T01:02:25.678Z,-6.41
2022-12-18T01:03:25.542Z,-6.46
2022-12-18T01:04:25.557Z,-6.47
2022-12-18T01:05:25.573Z,-6.46
2022-12-18T01:06:25.586Z,-6.45
2022-12-18T01:07:25.591Z,-6.47
2022-12-18T01:08:25.610Z,-6.46
2022-12-18T01:26:26.250Z,-6.45
2022-12-18T01:27:25.889Z,-6.47
2022-12-18T01:28:25.906Z,-6.47
2022-12-18T01:29:25.910Z,-6.51
2022-12-18T01:30:25.926Z,-6.52
2022-12-18T01:31:26.031Z,-6.48
2022-12-18T01:32:25.957Z,-6.53
2022-12-18T01:33:25.980Z,-6.53
2022-12-18T01:34:25.989Z,-6.48
2022-12-18T01:35:25.994Z,-6.49
2022-12-18T01:36:26.010Z,-6.50
2022-12-18T01:37:26.017Z,-6.48
2022-12-18T01:38:26.031Z,-6.48
2022-12-18T01:39:26.041Z,-6.48
2022-12-18T01:40:26.052Z,-6.51
2022-12-18T01:41:26.057Z,-6.51
2022-12-18T01:42:26.065Z,-6.52
2022-12-18T01:43:26.070Z,-6.55
2022-12-18T01:44:26.087Z,-6.53
2022-12-18T01:45:26.246Z,-6.52
2022-12-18T01:46:26.111Z,-6.53
2022-12-18T01:47:26.113Z,-6.51
2022-12-18T01:48:26.119Z,-6.54
2022-12-18T01:49:26.130Z,-6.52
2022-12-18T01:50:26.135Z,-6.49
2022-12-18T01:51:26.145Z,-6.49
2022-12-18T01:52:26.152Z,-6.51
2022-12-18T01:53:26.159Z,-6.52
2022-12-18T01:54:26.172Z,-6.49
2022-12-18T01:55:26.187Z,-6.53
2022-12-18T01:56:26.202Z,-6.53
2022-12-18T01:57:26.194Z,-6.55
2022-12-18T01:58:26.212Z,-6.56
2022-12-18T01:59:26.221Z,-6.58
2022-12-18T02:00:26.239Z,-6.57
2022-12-18T02:01:26.412Z,-6.60
2022-12-18T02:02:26.383Z,-6.55
2022-12-18T02:03:26.339Z,-6.56
2022-12-18T02:04:26.287Z,-6.57
2022-12-18T02:05:26.299Z,-6.54
2022-12-18T02:06:26.316Z,-6.55
2022-12-18T02:07:26.330Z,-6.58
2022-12-18T02:08:26.343Z,-6.57
2022-12-18T02:09:26.353Z,-6.58
2022-12-18T02:10:26.367Z,-6.60
2022-12-18T02:11:26.376Z,-6.58
2022-12-18T02:12:26.393Z,-6.59
2022-12-18T02:13:26.400Z,-6.57
2022-12-18T02:14:26.418Z,-6.60
2022-12-18T02:15:26.425Z,-6.61
2022-12-18T02:16:26.463Z,-6.61
2022-12-18T02:17:26.452Z,-6.63
2022-12-18T02:18:26.463Z,-6.62
2022-12-18T02:19:26.469Z,-6.61
2022-12-18T02:20:26.483Z,-6.61
2022-12-18T02:21:26.485Z,-6.62
2022-12-18T02:22:26.502Z,-6.60
2022-12-18T02:23:26.506Z,-6.57
2022-12-18T02:24:26.514Z,-6.57
2022-12-18T02:25:26.519Z,-6.55
2022-12-18T02:26:26.535Z,-6.56
2022-12-18T02:27:26.543Z,-6.54
2022-12-18T02:28:26.557Z,-6.54
2022-12-18T02:29:26.565Z,-6.55
2022-12-18T02:30:26.608Z,-6.58
2022-12-18T02:31:26.590Z,-6.60
2022-12-18T02:32:26.595Z,-6.56
2022-12-18T02:33:26.607Z,-6.60
2022-12-18T02:34:26.622Z,-6.59
2022-12-18T02:35:26.640Z,-6.61
2022-12-18T02:36:26.649Z,-6.60
2022-12-18T02:37:26.657Z,-6.62
2022-12-18T02:38:26.674Z,-6.62
2022-12-18T02:39:26.691Z,-6.65
2022-12-18T02:40:26.699Z,-6.65
2022-12-18T02:41:26.714Z,-6.64
2022-12-18T02:42:26.720Z,-6.66
2022-12-18T02:43:26.736Z,-6.66
2022-12-18T02:44:26.745Z,-6.69
2022-12-18T02:45:26.765Z,-6.70
2022-12-18T02:46:26.774Z,-6.74
2022-12-18T02:47:26.782Z,-6.75
2022-12-18T02:48:26.792Z,-6.76
2022-12-18T02:49:26.800Z,-6.74
2022-12-18T02:50:26.815Z,-6.72
2022-12-18T02:51:26.831Z,-6.74
2022-12-18T02:52:26.837Z,-6.75
2022-12-18T02:53:26.856Z,-6.79
2022-12-18T02:54:26.867Z,-6.81
2022-12-18T02:55:26.883Z,-6.82
2022-12-18T02:56:26.896Z,-6.79
2022-12-18T02:57:26.899Z,-6.84
2022-12-18T02:58:26.906Z,-6.85
2022-12-18T02:59:26.915Z,-6.88
2022-12-18T03:00:26.929Z,-6.86
2022-12-18T03:01:27.121Z,-6.86
2022-12-18T03:02:27.139Z,-6.85
2022-12-18T03:03:27.042Z,-6.83
2022-12-18T03:04:26.969Z,-6.86
2022-12-18T03:05:26.970Z,-6.89
2022-12-18T03:06:26.983Z,-6.88
2022-12-18T03:07:27.003Z,-6.88
2022-12-18T03:08:27.006Z,-6.87
2022-12-18T03:09:27.024Z,-6.82
2022-12-18T03:10:27.032Z,-6.86
2022-12-18T03:11:27.038Z,-6.84
2022-12-18T03:12:27.054Z,-6.87
2022-12-18T03:13:27.063Z,-6.87
2022-12-18T03:14:27.078Z,-6.85
2022-12-18T03:15:27.080Z,-6.86
2022-12-18T03:16:27.218Z,-6.85
2022-12-18T03:17:27.115Z,-6.85
2022-12-18T03:18:27.133Z,-6.83
2022-12-18T03:19:27.150Z,-6.85
2022-12-18T03:20:27.168Z,-6.84
2022-12-18T03:21:27.186Z,-6.82
2022-12-18T03:22:27.202Z,-6.85
2022-12-18T03:23:27.210Z,-6.84
2022-12-18T03:24:27.226Z,-6.86
2022-12-18T03:25:27.243Z,-6.86
2022-12-18T03:26:27.261Z,-6.86
2022-12-18T03:27:27.279Z,-6.88
2022-12-18T03:28:27.284Z,-6.88
2022-12-18T03:29:27.303Z,-6.88
2022-12-18T03:30:27.310Z,-6.84
2022-12-18T03:31:27.406Z,-6.85
2022-12-18T03:32:27.335Z,-6.88
2022-12-18T03:33:27.354Z,-6.89
2022-12-18T03:34:27.357Z,-6.89
2022-12-18T03:35:27.366Z,-6.90
2022-12-18T03:36:27.373Z,-6.92
2022-12-18T03:37:27.391Z,-6.92
2022-12-18T03:38:27.407Z,-6.91
2022-12-18T03:39:27.420Z,-6.91
2022-12-18T03:40:27.433Z,-6.92
2022-12-18T03:41:27.449Z,-6.92
2022-12-18T03:42:27.462Z,-6.90
2022-12-18T03:43:27.486Z,-6.88
2022-12-18T03:44:27.488Z,-6.92
2022-12-18T03:45:27.507Z,-6.90
2022-12-18T03:46:27.583Z,-6.92
2022-12-18T03:47:27.530Z,-6.95
2022-12-18T03:48:27.543Z,-6.95
2022-12-18T03:49:27.548Z,-6.94
2022-12-18T03:50:27.562Z,-6.94
2022-12-18T03:51:27.578Z,-6.94
2022-12-18T03:52:27.586Z,-6.94
2022-12-18T03:53:27.604Z,-6.91
2022-12-18T03:54:27.616Z,-6.93
2022-12-18T03:55:27.630Z,-6.92
2022-12-18T03:56:27.643Z,-6.91
2022-12-18T03:57:27.660Z,-6.94
2022-12-18T03:58:27.666Z,-6.95
2022-12-18T03:59:27.686Z,-6.95
2022-12-18T04:00:27.698Z,-6.92
2022-12-18T04:01:27.819Z,-6.95
2022-12-18T04:02:27.816Z,-6.97
2022-12-18T04:03:27.795Z,-7.02
2022-12-18T04:04:27.742Z,-7.02
2022-12-18T04:05:27.778Z,-7.00
2022-12-18T04:06:27.778Z,-7.01
2022-12-18T04:07:27.802Z,-7.03
2022-12-18T04:08:27.816Z,-7.01
2022-12-18T04:09:27.834Z,-7.01
2022-12-18T04:10:27.837Z,-7.04
2022-12-18T04:11:27.857Z,-7.02
2022-12-18T04:12:27.878Z,-7.05
2022-12-18T04:13:27.892Z,-7.05
2022-12-18T04:14:27.898Z,-7.02
2022-12-18T04:15:27.968Z,-7.03
2022-12-18T04:16:27.911Z,-7.02
2022-12-18T04:17:27.916Z,-7.01
2022-12-18T04:18:27.933Z,-7.00
2022-12-18T04:19:27.936Z,-7.02
2022-12-18T04:20:27.947Z,-7.05
2022-12-18T04:21:27.965Z,-7.04
2022-12-18T04:22:27.975Z,-7.05
2022-12-18T04:23:27.992Z,-7.08
2022-12-18T04:24:28.005Z,-7.07
2022-12-18T04:25:28.012Z,-7.08
2022-12-18T04:26:28.021Z,-7.08
2022-12-18T04:27:28.040Z,-7.06
2022-12-18T04:28:28.052Z,-7.08
2022-12-18T04:29:28.060Z,-7.05
2022-12-18T04:30:28.071Z,-7.09
2022-12-18T04:31:28.125Z,-7.11
2022-12-18T04:32:28.097Z,-7.07
2022-12-18T04:33:28.115Z,-7.07
2022-12-18T04:34:28.126Z,-7.09
2022-12-18T04:35:28.142Z,-7.08
2022-12-18T04:36:28.153Z,-7.10
2022-12-18T04:37:28.171Z,-7.06
2022-12-18T04:38:28.180Z,-7.08
2022-12-18T04:39:28.197Z,-7.09
2022-12-18T04:40:28.207Z,-7.12
2022-12-18T04:41:28.215Z,-7.10
2022-12-18T04:42:28.223Z,-7.08
2022-12-18T04:43:28.296Z,-7.08
2022-12-18T04:44:28.250Z,-7.07
2022-12-18T04:45:28.264Z,-7.06
2022-12-18T04:46:28.361Z,-7.08
2022-12-18T04:47:28.295Z,-7.09
2022-12-18T04:48:28.305Z,-7.08
2022-12-18T04:49:28.324Z,-7.10
2022-12-18T04:50:28.334Z,-7.08
2022-12-18T04:51:28.350Z,-7.07
2022-12-18T04:52:28.364Z,-7.07
2022-12-18T04:53:28.380Z,-7.07
2022-12-18T04:54:28.393Z,-7.07
2022-12-18T04:55:28.408Z,-7.06
2022-12-18T04:56:28.422Z,-7.08
2022-12-18T04:57:28.428Z,-7.10
2022-12-18T04:58:28.441Z,-7.09
2022-12-18T04:59:28.445Z,-7.12
2022-12-18T05:00:28.458Z,-7.12
2022-12-18T05:01:34.196Z,-7.14
2022-12-18T05:02:28.599Z,-7.14
2022-12-18T05:03:28.549Z,-7.15
2022-12-18T05:04:28.510Z,-7.13
2022-12-18T05:05:28.523Z,-7.15
2022-12-18T05:06:28.535Z,-7.15
2022-12-18T05:07:28.553Z,-7.13
2022-12-18T05:08:28.563Z,-7.12
2022-12-18T05:09:28.582Z,-7.13
2022-12-18T05:10:31.209Z,-7.14
2022-12-18T05:11:28.611Z,-7.12
2022-12-18T05:12:28.621Z,-7.14
2022-12-18T05:13:28.628Z,-7.13
2022-12-18T05:14:28.641Z,-7.13
2022-12-18T05:15:28.657Z,-7.16
2022-12-18T05:16:28.755Z,-7.16
2022-12-18T05:17:28.680Z,-7.14
2022-12-18T05:18:28.686Z,-7.12
2022-12-18T05:19:28.702Z,-7.13
2022-12-18T05:20:28.712Z,-7.12
2022-12-18T05:21:28.731Z,-7.12
2022-12-18T05:22:28.743Z,-7.14
2022-12-18T05:23:28.749Z,-7.10
2022-12-18T05:24:28.759Z,-7.14
2022-12-18T05:25:28.778Z,-7.11
2022-12-18T05:26:28.786Z,-7.13
2022-12-18T05:27:28.815Z,-7.12
2022-12-18T05:28:28.811Z,-7.15
2022-12-18T05:29:28.832Z,-7.15
2022-12-18T05:30:28.847Z,-7.16
2022-12-18T05:31:28.935Z,-7.17
2022-12-18T05:32:28.856Z,-7.13
2022-12-18T05:33:28.874Z,-7.15
2022-12-18T05:34:28.872Z,-7.13
2022-12-18T05:35:28.894Z,-7.14
2022-12-18T05:36:28.907Z,-7.13
2022-12-18T05:37:28.918Z,-7.14
2022-12-18T05:38:28.934Z,-7.17
2022-12-18T05:39:28.931Z,-7.15
2022-12-18T05:40:28.943Z,-7.14
2022-12-18T05:41:28.956Z,-7.14
2022-12-18T05:42:28.970Z,-7.16
2022-12-18T05:43:28.990Z,-7.16
2022-12-18T05:44:29.002Z,-7.16
2022-12-18T05:45:29.020Z,-7.17
2022-12-18T05:46:29.082Z,-7.19
2022-12-18T05:47:29.044Z,-7.20
2022-12-18T05:48:29.045Z,-7.20
2022-12-18T05:49:29.051Z,-7.18
2022-12-18T05:50:29.058Z,-7.21
2022-12-18T05:51:29.078Z,-7.21
2022-12-18T05:52:29.088Z,-7.21
2022-12-18T05:53:29.109Z,-7.19
2022-12-18T05:54:29.117Z,-7.20
2022-12-18T05:55:29.119Z,-7.22
2022-12-18T05:56:29.138Z,-7.21
2022-12-18T05:57:29.159Z,-7.21
2022-12-18T05:58:29.168Z,-7.18
2022-12-18T05:59:29.186Z,-7.21
2022-12-18T06:00:29.192Z,-7.20
2022-12-18T06:01:29.201Z,-7.21
2022-12-18T06:02:29.331Z,-7.22
2022-12-18T06:03:33.641Z,-7.24
2022-12-18T06:04:29.224Z,-7.19
2022-12-18T06:05:29.235Z,-7.17
2022-12-18T06:06:29.237Z,-7.19
2022-12-18T06:07:29.246Z,-7.19
2022-12-18T06:08:29.264Z,-7.21
2022-12-18T06:09:29.286Z,-7.21
2022-12-18T06:10:29.303Z,-7.23
2022-12-18T06:11:29.309Z,-7.24
2022-12-18T06:12:29.331Z,-7.23
2022-12-18T06:13:29.341Z,-7.22
2022-12-18T06:14:29.363Z,-7.21
2022-12-18T06:15:29.369Z,-7.21
2022-12-18T06:16:29.497Z,-7.24
2022-12-18T06:17:29.404Z,-7.23
2022-12-18T06:18:29.419Z,-7.24
2022-12-18T06:19:29.430Z,-7.28
2022-12-18T06:20:33.367Z,-7.23
2022-12-18T06:21:29.469Z,-7.26
2022-12-18T06:22:29.490Z,-7.26
2022-12-18T06:23:29.494Z,-7.27
2022-12-18T06:24:29.518Z,-7.27
2022-12-18T06:25:29.519Z,-7.27
2022-12-18T06:26:29.544Z,-7.26
2022-12-18T06:27:29.560Z,-7.26
2022-12-18T06:28:29.561Z,-7.25
2022-12-18T06:29:29.571Z,-7.24
2022-12-18T06:30:29.578Z,-7.23
2022-12-18T06:31:29.626Z,-7.25
2022-12-18T06:32:29.604Z,-7.23
2022-12-18T06:33:29.616Z,-7.24
2022-12-18T06:34:29.615Z,-7.23
2022-12-18T06:35:29.630Z,-7.24
2022-12-18T06:36:29.643Z,-7.24
2022-12-18T06:37:29.646Z,-7.25
2022-12-18T06:38:29.645Z,-7.27
2022-12-18T06:39:29.649Z,-7.24
2022-12-18T06:40:29.675Z,-7.25
2022-12-18T06:41:29.692Z,-7.24
2022-12-18T06:42:29.708Z,-7.24
2022-12-18T06:43:29.714Z,-7.22
2022-12-18T06:44:29.724Z,-7.25
2022-12-18T06:45:29.815Z,-7.24
2022-12-18T06:46:29.736Z,-7.27
2022-12-18T06:47:29.747Z,-7.25
2022-12-18T06:48:29.745Z,-7.23
2022-12-18T06:49:30.683Z,-7.21
2022-12-18T06:50:29.763Z,-7.22
2022-12-18T06:51:29.765Z,-7.19
2022-12-18T06:52:29.774Z,-7.22
2022-12-18T06:53:29.779Z,-7.23
2022-12-18T06:54:29.786Z,-7.24
2022-12-18T06:55:29.793Z,-7.27
2022-12-18T06:56:29.799Z,-7.26
2022-12-18T06:57:29.805Z,-7.26
2022-12-18T06:58:29.814Z,-7.27
2022-12-18T06:59:29.816Z,-7.25
2022-12-18T07:00:29.938Z,-7.25
2022-12-18T07:01:29.901Z,-7.26
2022-12-18T07:02:29.946Z,-7.28
2022-12-18T07:03:29.841Z,-7.29
2022-12-18T07:04:29.847Z,-7.29
2022-12-18T07:05:29.854Z,-7.29
2022-12-18T07:06:29.860Z,-7.31
2022-12-18T07:07:29.868Z,-7.29
2022-12-18T07:08:29.873Z,-7.31
2022-12-18T07:09:29.878Z,-7.32
2022-12-18T07:10:29.974Z,-7.34
2022-12-18T07:11:29.897Z,-7.31
2022-12-18T07:12:29.911Z,-7.32
2022-12-18T07:13:29.909Z,-7.30
2022-12-18T07:14:29.913Z,-7.33
2022-12-18T07:15:29.923Z,-7.29
2022-12-18T07:16:30.027Z,-7.30
2022-12-18T07:17:29.938Z,-7.32
2022-12-18T07:18:29.944Z,-7.26
2022-12-18T07:19:29.952Z,-7.28
2022-12-18T07:20:30.003Z,-7.30
2022-12-18T07:21:29.970Z,-7.32
2022-12-18T07:22:29.975Z,-7.32
2022-12-18T07:23:29.980Z,-7.29
2022-12-18T07:24:29.993Z,-7.33
2022-12-18T07:25:29.994Z,-7.33
2022-12-18T07:26:30.001Z,-7.33
2022-12-18T07:27:30.006Z,-7.32
2022-12-18T07:28:30.014Z,-7.30
2022-12-18T07:29:30.017Z,-7.29
2022-12-18T07:30:30.094Z,-7.29
2022-12-18T07:31:30.095Z,-7.29
2022-12-18T07:32:30.045Z,-7.29
2022-12-18T07:33:30.054Z,-7.26
2022-12-18T07:34:30.057Z,-7.26
2022-12-18T07:35:30.063Z,-7.24
2022-12-18T07:36:30.100Z,-7.26
2022-12-18T07:37:30.078Z,-7.26
2022-12-18T07:38:30.085Z,-7.26
2022-12-18T07:39:30.095Z,-7.26
2022-12-18T07:40:30.093Z,-7.22
2022-12-18T07:41:30.098Z,-7.22
2022-12-18T07:42:30.106Z,-7.25
2022-12-18T07:43:30.111Z,-7.21
2022-12-18T07:44:30.117Z,-7.18
2022-12-18T07:45:30.189Z,-7.18
2022-12-18T07:46:30.133Z,-7.17
2022-12-18T07:47:30.136Z,-7.16
2022-12-18T07:48:30.146Z,-7.13
2022-12-18T07:49:30.146Z,-7.10
2022-12-18T07:50:30.153Z,-7.11
2022-12-18T07:51:30.160Z,-7.06
2022-12-18T07:52:30.165Z,-7.05
2022-12-18T07:53:30.171Z,-7.03
2022-12-18T07:54:30.177Z,-6.98
2022-12-18T07:55:42.155Z,-6.98
2022-12-18T07:56:31.355Z,-6.96
2022-12-18T07:58:30.215Z,-6.90
2022-12-18T07:59:30.223Z,-6.88
2022-12-18T08:00:30.223Z,-6.85
2022-12-18T08:01:30.315Z,-6.78
2022-12-18T08:02:30.391Z,-6.71
2022-12-18T08:03:30.247Z,-6.67
2022-12-18T08:04:30.259Z,-6.64
2022-12-18T08:05:30.257Z,-6.59
2022-12-18T08:06:30.264Z,-6.59
2022-12-18T08:07:30.271Z,-6.57
2022-12-18T08:08:30.277Z,-6.55
2022-12-18T08:09:30.284Z,-6.54
2022-12-18T08:10:30.287Z,-6.56
2022-12-18T08:11:30.293Z,-6.55
2022-12-18T08:12:30.301Z,-6.52
2022-12-18T08:13:30.306Z,-6.51
2022-12-18T08:14:30.311Z,-6.48
2022-12-18T08:15:30.321Z,-6.46
2022-12-18T08:16:30.360Z,-6.48
2022-12-18T08:17:30.329Z,-6.45
2022-12-18T08:18:30.337Z,-6.49
2022-12-18T08:19:30.341Z,-6.49
2022-12-18T08:20:30.346Z,-6.45
2022-12-18T08:21:30.351Z,-6.45
2022-12-18T08:22:30.358Z,-6.44
2022-12-18T08:23:30.364Z,-6.41
2022-12-18T08:24:30.369Z,-6.43
2022-12-18T08:25:30.375Z,-6.41
2022-12-18T08:26:30.384Z,-6.40
2022-12-18T08:27:30.624Z,-6.41
2022-12-18T08:28:30.391Z,-6.40
2022-12-18T08:29:30.397Z,-6.33
2022-12-18T08:30:30.429Z,-6.32
2022-12-18T08:31:30.477Z,-6.31
2022-12-18T08:32:30.423Z,-6.29
2022-12-18T08:33:30.435Z,-6.28
2022-12-18T08:34:30.432Z,-6.31
2022-12-18T08:35:34.336Z,-6.24
2022-12-18T08:36:30.449Z,-6.28
2022-12-18T08:37:30.462Z,-6.28
2022-12-18T08:38:30.477Z,-6.18
2022-12-18T08:39:30.490Z,-6.21
2022-12-18T08:40:30.485Z,-6.19
2022-12-18T08:41:30.496Z,-6.18
2022-12-18T08:42:30.501Z,-6.16
2022-12-18T08:43:30.513Z,-6.14
2022-12-18T08:44:30.518Z,-6.11
2022-12-18T08:45:30.528Z,-6.09
2022-12-18T08:46:30.603Z,-6.05
2022-12-18T08:47:30.574Z,-6.04
2022-12-18T08:48:30.551Z,-6.00
2022-12-18T08:49:30.555Z,-5.98
2022-12-18T08:50:30.562Z,-5.96
2022-12-18T08:51:30.566Z,-5.94
2022-12-18T08:52:30.574Z,-5.92
2022-12-18T08:53:35.418Z,-5.93
2022-12-18T08:54:30.584Z,-5.91
2022-12-18T08:55:30.590Z,-5.89
2022-12-18T08:56:30.596Z,-5.85
2022-12-18T08:57:30.604Z,-5.87
2022-12-18T08:58:30.614Z,-5.83
2022-12-18T08:59:30.618Z,-5.81
2022-12-18T09:00:30.624Z,-5.79
2022-12-18T09:01:30.725Z,-5.79
2022-12-18T09:02:30.817Z,-5.75
2022-12-18T09:03:30.791Z,-5.71
2022-12-18T09:04:30.652Z,-5.74
2022-12-18T09:05:30.654Z,-5.74
2022-12-18T09:06:30.663Z,-5.70
2022-12-18T09:07:30.745Z,-5.69
2022-12-18T09:08:30.673Z,-5.66
2022-12-18T09:09:30.672Z,-5.63
2022-12-18T09:10:30.680Z,-5.60
2022-12-18T09:11:30.686Z,-5.56
2022-12-18T09:12:30.697Z,-5.56
2022-12-18T09:13:30.702Z,-5.55
2022-12-18T09:14:30.713Z,-5.51
2022-12-18T09:15:30.715Z,-5.49
2022-12-18T09:16:32.473Z,-5.47
2022-12-18T09:17:30.800Z,-5.45
2022-12-18T09:18:30.743Z,-5.37
2022-12-18T09:19:30.747Z,-5.37
2022-12-18T09:20:30.755Z,-5.38
2022-12-18T09:21:30.763Z,-5.36
2022-12-18T09:22:30.770Z,-5.34
2022-12-18T09:23:30.769Z,-5.37
2022-12-18T09:24:30.776Z,-5.33
2022-12-18T09:25:30.782Z,-5.32
2022-12-18T09:26:30.793Z,-5.23
2022-12-18T09:27:30.798Z,-5.15
2022-12-18T09:28:30.809Z,-5.10
2022-12-18T09:29:30.813Z,-5.06
2022-12-18T09:30:30.883Z,-5.02
2022-12-18T09:31:30.829Z,-4.98
2022-12-18T09:32:30.839Z,-4.95
2022-12-18T09:33:30.856Z,-4.94
2022-12-18T09:34:30.855Z,-4.91
2022-12-18T09:35:30.862Z,-4.89
2022-12-18T09:36:30.868Z,-4.82
2022-12-18T09:37:30.880Z,-4.82
2022-12-18T09:38:30.888Z,-4.80
2022-12-18T09:39:30.889Z,-4.80
2022-12-18T09:40:30.898Z,-4.75
2022-12-18T09:41:30.901Z,-4.70
2022-12-18T09:42:30.912Z,-4.71
2022-12-18T09:43:30.919Z,-4.69
2022-12-18T09:44:30.988Z,-4.65
2022-12-18T09:45:30.931Z,-4.65
2022-12-18T09:46:31.014Z,-4.66
2022-12-18T09:47:30.949Z,-4.62
2022-12-18T09:48:30.971Z,-4.62
2022-12-18T09:49:30.964Z,-4.55
2022-12-18T09:50:30.973Z,-4.56
2022-12-18T09:51:30.981Z,-4.54
2022-12-18T09:52:30.986Z,-4.52
2022-12-18T09:53:30.992Z,-4.49
2022-12-18T09:54:31.000Z,-4.47
2022-12-18T09:55:36.776Z,-4.43
2022-12-18T09:56:31.017Z,-4.38
2022-12-18T09:57:31.025Z,-4.32
2022-12-18T09:58:31.036Z,-4.28
2022-12-18T09:59:31.045Z,-4.24
2022-12-18T10:00:31.057Z,-4.22
2022-12-18T10:01:39.119Z,-4.18
2022-12-18T10:02:31.190Z,-4.15
2022-12-18T10:03:31.082Z,-4.11
2022-12-18T10:04:31.152Z,-4.07
2022-12-18T10:05:31.095Z,-4.07
2022-12-18T10:06:31.104Z,-4.08
2022-12-18T10:07:31.125Z,-4.04
2022-12-18T10:08:31.116Z,-3.98
2022-12-18T10:09:31.137Z,-3.91
2022-12-18T10:10:31.145Z,-3.90
2022-12-18T10:11:31.147Z,-3.90
2022-12-18T10:12:31.143Z,-3.86
2022-12-18T10:13:31.161Z,-3.78
2022-12-18T10:14:31.155Z,-3.81
2022-12-18T10:15:31.225Z,-3.76
2022-12-18T10:16:31.168Z,-3.73
2022-12-18T10:17:31.174Z,-3.64
2022-12-18T10:18:31.183Z,-3.65
2022-12-18T10:19:31.187Z,-3.58
2022-12-18T10:20:31.197Z,-3.59
2022-12-18T10:21:31.209Z,-3.53
2022-12-18T10:22:31.218Z,-3.51
2022-12-18T10:23:31.224Z,-3.49
2022-12-18T10:24:31.234Z,-3.49
2022-12-18T10:25:31.240Z,-3.44
2022-12-18T10:26:31.246Z,-3.45
2022-12-18T10:27:31.252Z,-3.44
2022-12-18T10:28:31.265Z,-3.42
2022-12-18T10:29:31.265Z,-3.44
2022-12-18T10:30:31.278Z,-3.47
2022-12-18T10:31:31.295Z,-3.43
2022-12-18T10:32:31.294Z,-3.47
2022-12-18T10:33:31.303Z,-3.47
2022-12-18T10:34:31.310Z,-3.48
2022-12-18T10:35:31.319Z,-3.41
2022-12-18T10:36:31.324Z,-3.42
2022-12-18T10:37:31.333Z,-3.43
2022-12-18T10:38:31.344Z,-3.40
2022-12-18T10:39:31.349Z,-3.38
2022-12-18T10:40:31.355Z,-3.32
2022-12-18T10:41:31.389Z,-3.30
2022-12-18T10:42:31.374Z,-3.26
2022-12-18T10:43:31.383Z,-3.26
2022-12-18T10:44:31.392Z,-3.26
2022-12-18T10:45:31.397Z,-3.20
2022-12-18T10:46:31.474Z,-3.17
2022-12-18T10:47:31.417Z,-3.13
2022-12-18T10:48:31.431Z,-3.06
2022-12-18T10:49:31.437Z,-3.01
2022-12-18T10:50:47.079Z,-2.92
2022-12-18T10:51:31.858Z,-2.89
2022-12-18T10:52:31.460Z,-2.91
2022-12-18T10:53:31.467Z,-2.86
2022-12-18T10:54:31.475Z,-2.86
2022-12-18T10:55:31.480Z,-2.82
2022-12-18T10:56:31.493Z,-2.82
2022-12-18T10:57:31.501Z,-2.78
2022-12-18T10:58:31.510Z,-2.72
2022-12-18T10:59:31.514Z,-2.72
2022-12-18T11:00:31.528Z,-2.68
2022-12-18T11:01:31.556Z,-2.62
2022-12-18T11:02:31.765Z,-2.59
2022-12-18T11:03:31.728Z,-2.54
2022-12-18T11:04:31.550Z,-2.47
2022-12-18T11:05:31.576Z,-2.47
2022-12-18T11:06:31.576Z,-2.41
2022-12-18T11:07:31.572Z,-2.29
2022-12-18T11:08:31.591Z,-2.33
2022-12-18T11:09:31.591Z,-2.32
2022-12-18T11:10:31.600Z,-2.31
2022-12-18T11:11:31.606Z,-2.33
2022-12-18T11:12:31.612Z,-2.34
2022-12-18T11:13:31.622Z,-2.34
2022-12-18T11:14:31.628Z,-2.33
2022-12-18T11:15:31.640Z,-2.36
2022-12-18T11:16:31.672Z,-2.34
2022-12-18T11:17:31.706Z,-2.30
2022-12-18T11:18:31.659Z,-2.34
2022-12-18T11:19:31.667Z,-2.38
2022-12-18T11:20:31.672Z,-2.39
2022-12-18T11:21:31.677Z,-2.40
2022-12-18T11:22:31.692Z,-2.37
2022-12-18T11:23:31.696Z,-2.36
2022-12-18T11:24:31.703Z,-2.36
2022-12-18T11:25:32.833Z,-2.36
2022-12-18T11:26:31.719Z,-2.33
2022-12-18T11:27:31.728Z,-2.31
2022-12-18T11:28:31.731Z,-2.25
2022-12-18T11:29:31.741Z,-2.27
2022-12-18T11:30:31.749Z,-2.21
2022-12-18T11:31:31.813Z,-2.19
2022-12-18T11:32:31.761Z,-2.14
2022-12-18T11:33:31.763Z,-2.12
2022-12-18T11:34:31.782Z,-2.05
2022-12-18T11:35:31.779Z,-2.04
2022-12-18T11:36:31.823Z,-1.96
2022-12-18T11:37:31.793Z,-1.93
2022-12-18T11:38:31.801Z,-1.92
2022-12-18T11:39:31.822Z,-1.90
2022-12-18T11:40:34.355Z,-1.83
2022-12-18T11:41:31.819Z,-1.74
2022-12-18T11:42:31.824Z,-1.69
2022-12-18T11:43:31.836Z,-1.64
2022-12-18T11:44:31.834Z,-1.64
2022-12-18T11:45:31.844Z,-1.60
2022-12-18T11:46:31.879Z,-1.60
2022-12-18T11:47:31.860Z,-1.57
2022-12-18T11:48:31.866Z,-1.54
2022-12-18T11:49:31.874Z,-1.54
2022-12-18T11:50:31.878Z,-1.57
2022-12-18T11:51:31.888Z,-1.54
2022-12-18T11:52:31.887Z,-1.55
2022-12-18T11:53:31.896Z,-1.54
2022-12-18T11:54:31.902Z,-1.55
2022-12-18T11:55:31.967Z,-1.53
2022-12-18T11:56:31.929Z,-1.55
2022-12-18T11:57:31.925Z,-1.54
2022-12-18T11:58:31.942Z,-1.57
2022-12-18T11:59:31.937Z,-1.57
2022-12-18T12:00:31.944Z,-1.56
2022-12-18T12:01:32.040Z,-1.55
2022-12-18T12:02:32.087Z,-1.59
2022-12-18T12:03:32.044Z,-1.58
2022-12-18T12:04:32.031Z,-1.62
2022-12-18T12:05:31.984Z,-1.65
2022-12-18T12:06:31.991Z,-1.69
2022-12-18T12:07:31.995Z,-1.75
2022-12-18T12:08:32.001Z,-1.81
2022-12-18T12:09:32.008Z,-1.82
2022-12-18T12:10:32.017Z,-1.81
2022-12-18T12:11:32.019Z,-1.81
2022-12-18T12:12:32.035Z,-1.81
2022-12-18T12:13:32.039Z,-1.81
2022-12-18T12:14:32.045Z,-1.82
2022-12-18T12:15:32.055Z,-1.80
2022-12-18T12:16:32.177Z,-1.75
2022-12-18T12:17:32.069Z,-1.77
2022-12-18T12:18:32.076Z,-1.77
2022-12-18T12:19:32.092Z,-1.79
2022-12-18T12:20:35.901Z,-1.82
2022-12-18T12:21:32.116Z,-1.71
2022-12-18T12:22:32.130Z,-1.74
2022-12-18T12:23:32.124Z,-1.71
2022-12-18T12:24:32.136Z,-1.72
2022-12-18T12:25:32.189Z,-1.73
2022-12-18T12:26:32.149Z,-1.71
2022-12-18T12:27:32.153Z,-1.69
2022-12-18T12:28:32.162Z,-1.67
2022-12-18T12:29:32.172Z,-1.66
2022-12-18T12:30:32.178Z,-1.69
2022-12-18T12:31:32.227Z,-1.70
2022-12-18T12:32:32.205Z,-1.68
2022-12-18T12:33:32.204Z,-1.71
2022-12-18T12:34:32.216Z,-1.66
2022-12-18T12:35:32.218Z,-1.65
2022-12-18T12:36:32.227Z,-1.63
2022-12-18T12:37:32.236Z,-1.67
2022-12-18T12:38:32.244Z,-1.63
2022-12-18T12:39:32.253Z,-1.64
2022-12-18T12:41:32.257Z,-1.65
2022-12-18T12:42:32.273Z,-1.62
2022-12-18T12:43:32.279Z,-1.65
2022-12-18T12:44:32.339Z,-1.58
2022-12-18T12:45:32.375Z,-1.64
2022-12-18T12:46:32.296Z,-1.60
2022-12-18T12:47:32.308Z,-1.66
2022-12-18T12:48:32.312Z,-1.67
2022-12-18T12:49:35.223Z,-1.65
2022-12-18T12:50:32.330Z,-1.67
2022-12-18T12:51:32.339Z,-1.64
2022-12-18T12:52:32.347Z,-1.63
2022-12-18T12:53:32.353Z,-1.61
2022-12-18T12:54:32.369Z,-1.62
2022-12-18T12:55:32.371Z,-1.53
2022-12-18T12:56:32.379Z,-1.53
2022-12-18T12:57:32.386Z,-1.48
2022-12-18T12:58:32.410Z,-1.48
2022-12-18T12:59:32.402Z,-1.44
2022-12-18T13:00:32.409Z,-1.42
2022-12-18T13:01:32.591Z,-1.43
2022-12-18T13:02:32.505Z,-1.42
2022-12-18T13:03:32.420Z,-1.41
2022-12-18T13:04:32.433Z,-1.43
2022-12-18T13:05:32.451Z,-1.41
2022-12-18T13:06:32.449Z,-1.40
2022-12-18T13:07:32.462Z,-1.40
2022-12-18T13:08:33.351Z,-1.39
2022-12-18T13:09:32.477Z,-1.41
2022-12-18T13:10:32.509Z,-1.43
2022-12-18T13:11:32.492Z,-1.45